SBTT

Tabatinga Airport

Tabatinga, Brazil
TAF SBTT 181600Z 1818/1918 30005KT 9999 SCT020 FEW025TCU TN23/1911Z T X30/1917Z BECMG 1822/1824 00000KT CAVOK BECMG 1910/1912 06002KT BECMG 1915/191 7 09005KT SCT020 FEW025TCU RMK PFF
Issued Valid From Valid To
Jul-18 @ 16:00 UTC
(7 hours ago)
Jul-18 @ 18:00 UTC
(5 hours ago)
Jul-19 @ 18:00 UTC
(in 19 hours)
Expired Click to View Jul-18 @ 18:00 to Jul-18 @ 22:00
TAF SBTT 181600Z 1818/1918 30005KT 9999 SCT020 FEW025TCU TN23/1911Z T X30/1917Z
Wind Visibility Clouds
300° at 5 knots 10,000+ meters
  • Scattered at 2,000' AGL
  • Few at 2,500' AGL
Becoming Jul-18 @ 22:00 to Jul-19 @ 10:00
BECMG 1822/1824 00000KT CAVOK
Visibility Clouds Conditions
10,000+ meters
  • No significant clouds
Becoming Jul-19 @ 10:00 to Jul-19 @ 18:00
BECMG 1910/1912 06002KT
Wind Visibility Clouds Conditions
60° at 2 knots 10,000+ meters
  • No significant clouds
TAF SBTT 181600Z 1818/1918 30005KT 9999 SCT020 FEW025TCU TN23/1911Z T X30/1917Z BECMG 1822/1824 00000KT CAVOK BECMG 1910/1912 06002KT BECMG 1915/191 7 09005KT SCT020 FEW025TCU RMK PFF
Issued Jul-18 @ 16:00 UTC
(7 hours ago)
Valid From Jul-18 @ 18:00 UTC
(5 hours ago)
Valid To Jul-19 @ 18:00 UTC
(in 19 hours)
Jul-18 @ 18:00 - Jul-18 @ 22:00
Wind Visibility
300° at 5 knots 10,000+ meters
Clouds
  • Scattered at 2,000' AGL
  • Few at 2,500' AGL
Becoming Jul-18 @ 22:00 - Jul-19 @ 10:00
Clouds
  • No significant clouds
Conditions
Becoming Jul-19 @ 10:00 - Jul-19 @ 18:00
Wind Visibility
60° at 2 knots 10,000+ meters
Clouds
  • No significant clouds
Conditions